createdAt,value
2022-10-13T00:00:09.613Z,5.4
2022-10-13T00:03:09.526Z,5.4
2022-10-13T00:06:09.527Z,5.4
2022-10-13T00:09:09.517Z,5.4
2022-10-13T00:12:09.526Z,5.4
2022-10-13T00:15:09.503Z,5.5
2022-10-13T00:18:09.562Z,5.6
2022-10-13T00:21:09.495Z,5.6
2022-10-13T00:24:09.578Z,5.7
2022-10-13T00:27:09.464Z,5.8
2022-10-13T00:30:09.498Z,5.8
2022-10-13T00:33:09.593Z,5.9
2022-10-13T00:36:09.548Z,6
2022-10-13T00:39:09.503Z,6.1
2022-10-13T00:42:09.544Z,6.1
2022-10-13T00:45:09.587Z,6.1
2022-10-13T00:48:09.631Z,6.1
2022-10-13T00:51:09.481Z,6.1
2022-10-13T00:54:09.501Z,6.1
2022-10-13T00:57:09.527Z,6.1
2022-10-13T01:00:09.643Z,6.2
2022-10-13T01:03:09.525Z,6.2
2022-10-13T01:06:09.610Z,6.2
2022-10-13T01:09:09.900Z,6.2
2022-10-13T01:12:09.555Z,6.2
2022-10-13T01:15:09.565Z,6.2
2022-10-13T01:18:09.526Z,6.3
2022-10-13T01:21:09.609Z,6.4
2022-10-13T01:24:09.539Z,6.3
2022-10-13T01:27:09.535Z,6.3
2022-10-13T01:30:09.536Z,6.3
2022-10-13T01:33:09.542Z,6.3
2022-10-13T01:36:09.591Z,6.3
2022-10-13T01:39:09.578Z,6.4
2022-10-13T01:42:11.133Z,6.4
2022-10-13T01:45:09.578Z,6.4
2022-10-13T01:48:09.605Z,6.4
2022-10-13T01:51:09.594Z,6.4
2022-10-13T01:54:09.575Z,6.4
2022-10-13T01:57:09.535Z,6.4
2022-10-13T02:00:09.570Z,6.3
2022-10-13T02:03:09.526Z,6.2
2022-10-13T02:06:09.571Z,6.1
2022-10-13T02:09:09.603Z,6.1
2022-10-13T02:12:09.810Z,6.1
2022-10-13T02:15:09.694Z,6.2
2022-10-13T02:18:09.544Z,6.1
2022-10-13T02:21:09.533Z,6.1
2022-10-13T02:24:09.540Z,6
2022-10-13T02:27:09.538Z,5.9
2022-10-13T02:30:09.497Z,5.8
2022-10-13T02:33:09.525Z,5.7
2022-10-13T02:36:09.587Z,5.7
2022-10-13T02:39:09.604Z,5.7
2022-10-13T02:42:09.604Z,5.7
2022-10-13T02:45:09.659Z,5.7
2022-10-13T02:48:09.585Z,5.8
2022-10-13T02:51:09.552Z,5.9
2022-10-13T02:54:09.590Z,5.9
2022-10-13T02:57:09.628Z,5.9
2022-10-13T03:00:09.621Z,6
2022-10-13T03:03:09.529Z,6
2022-10-13T03:06:09.675Z,6
2022-10-13T03:09:09.676Z,6
2022-10-13T03:12:09.644Z,6.1
2022-10-13T03:15:09.544Z,6.1
2022-10-13T03:18:09.612Z,6.1
2022-10-13T03:21:09.650Z,6.1
2022-10-13T03:24:09.527Z,6.1
2022-10-13T03:27:09.553Z,6.2
2022-10-13T03:30:09.652Z,6.1
2022-10-13T03:33:09.545Z,6.1
2022-10-13T03:36:09.547Z,6.1
2022-10-13T03:39:09.657Z,6.1
2022-10-13T03:42:09.620Z,6
2022-10-13T03:45:09.586Z,5.9
2022-10-13T03:48:09.645Z,5.8
2022-10-13T03:51:09.540Z,5.6
2022-10-13T03:54:09.659Z,5.5
2022-10-13T03:57:09.712Z,5.4
2022-10-13T04:00:09.641Z,5.4
2022-10-13T04:03:09.601Z,5.4
2022-10-13T04:06:09.534Z,5.6
2022-10-13T04:09:09.545Z,5.7
2022-10-13T04:12:09.715Z,5.7
2022-10-13T04:15:09.509Z,5.7
2022-10-13T04:18:09.523Z,5.7
2022-10-13T04:21:09.551Z,5.7
2022-10-13T04:24:09.636Z,5.8
2022-10-13T04:27:09.622Z,5.7
2022-10-13T04:30:12.455Z,5.8
2022-10-13T04:33:09.631Z,5.9
2022-10-13T04:36:09.649Z,5.9
2022-10-13T04:39:09.587Z,5.9
2022-10-13T04:42:09.525Z,5.9
2022-10-13T04:45:09.559Z,5.9
2022-10-13T04:48:09.556Z,5.9
2022-10-13T04:51:09.626Z,5.9
2022-10-13T04:54:09.567Z,5.9
2022-10-13T04:57:09.601Z,5.9
2022-10-13T05:00:09.591Z,5.9
2022-10-13T05:03:09.548Z,5.9
2022-10-13T05:06:09.572Z,5.9
2022-10-13T05:09:09.592Z,6
2022-10-13T05:12:09.510Z,5.9
2022-10-13T05:15:09.519Z,5.9
2022-10-13T05:18:09.519Z,5.9
2022-10-13T05:21:09.593Z,5.8
2022-10-13T05:24:09.554Z,5.7
2022-10-13T05:27:09.473Z,5.7
2022-10-13T05:30:09.568Z,5.6
2022-10-13T05:33:09.584Z,5.6
2022-10-13T05:36:09.503Z,5.6
2022-10-13T05:39:09.683Z,5.6
2022-10-13T05:42:09.574Z,5.6
2022-10-13T05:45:09.578Z,5.6
2022-10-13T05:48:09.751Z,5.5
2022-10-13T05:51:09.713Z,5.6
2022-10-13T05:54:09.483Z,5.6
2022-10-13T05:57:09.464Z,5.6
2022-10-13T06:00:09.644Z,5.7
2022-10-13T06:03:09.561Z,5.7
2022-10-13T06:06:09.526Z,5.7
2022-10-13T06:09:09.488Z,5.7
2022-10-13T06:12:09.582Z,5.7
2022-10-13T06:15:09.557Z,5.7
2022-10-13T06:18:09.554Z,5.7
2022-10-13T06:21:09.608Z,5.7
2022-10-13T06:24:09.584Z,5.8
2022-10-13T06:27:09.593Z,5.8
2022-10-13T06:30:09.672Z,5.8
2022-10-13T06:33:09.575Z,5.9
2022-10-13T06:36:09.682Z,6
2022-10-13T06:39:09.591Z,6.1
2022-10-13T06:42:09.577Z,6.3
2022-10-13T06:45:09.610Z,6.4
2022-10-13T06:48:09.684Z,6.6
2022-10-13T06:51:09.518Z,6.8
2022-10-13T06:54:09.548Z,7
2022-10-13T06:57:09.489Z,7.2
2022-10-13T07:00:09.739Z,7.4
2022-10-13T07:03:09.506Z,7.5
2022-10-13T07:06:09.648Z,7.6
2022-10-13T07:09:09.636Z,7.7
2022-10-13T07:12:09.557Z,7.8
2022-10-13T07:15:09.497Z,7.9
2022-10-13T07:18:09.613Z,7.9
2022-10-13T07:21:09.525Z,8
2022-10-13T07:24:09.615Z,8.1
2022-10-13T07:27:16.681Z,8.1
2022-10-13T07:30:09.601Z,8.1
2022-10-13T07:33:09.532Z,8.3
2022-10-13T07:36:09.617Z,8.4
2022-10-13T07:39:09.590Z,8.6
2022-10-13T07:42:09.625Z,8.9
2022-10-13T07:45:09.671Z,9.1
2022-10-13T07:48:09.661Z,9.2
2022-10-13T07:51:09.627Z,9.4
2022-10-13T07:54:09.566Z,10
2022-10-13T07:57:09.505Z,10.6
2022-10-13T08:00:09.637Z,11.1
2022-10-13T08:03:09.537Z,11.4
2022-10-13T08:06:09.870Z,11.3
2022-10-13T08:09:09.571Z,11.3
2022-10-13T08:12:10.957Z,11.3
2022-10-13T08:15:15.341Z,11.4
2022-10-13T08:18:09.589Z,11.8
2022-10-13T08:24:09.510Z,13.2
2022-10-13T08:27:09.558Z,13.5
2022-10-13T08:30:09.688Z,13.5
2022-10-13T08:33:09.649Z,13.4
2022-10-13T08:36:09.594Z,13.6
2022-10-13T08:39:09.612Z,14
2022-10-13T08:42:09.541Z,14.2
2022-10-13T08:45:51.107Z,14.6
2022-10-13T08:48:09.576Z,14.7
2022-10-13T08:51:09.512Z,15.6
2022-10-13T08:54:09.503Z,16.6
2022-10-13T09:00:09.583Z,17.7
2022-10-13T09:03:09.553Z,18.1
2022-10-13T09:06:09.588Z,18.3
2022-10-13T09:09:09.606Z,18.3
2022-10-13T09:12:09.562Z,18.3
2022-10-13T09:15:09.559Z,17.8
2022-10-13T09:18:09.526Z,17.5
2022-10-13T09:21:09.604Z,17.4
2022-10-13T09:24:09.578Z,17.4
2022-10-13T09:27:09.494Z,17.5
2022-10-13T09:30:09.599Z,17.7
2022-10-13T09:33:09.544Z,18
2022-10-13T09:36:09.496Z,18.6
2022-10-13T09:39:09.507Z,18.9
2022-10-13T09:42:09.534Z,19.3
2022-10-13T09:45:09.652Z,19.1
2022-10-13T09:48:09.571Z,18.9
2022-10-13T09:51:09.546Z,19.1
2022-10-13T09:54:09.581Z,19.2
2022-10-13T09:57:09.468Z,19
2022-10-13T10:03:09.502Z,18.9
2022-10-13T10:09:14.187Z,17.2
2022-10-13T10:12:09.602Z,16.8
2022-10-13T10:15:09.528Z,16.8
2022-10-13T10:18:09.581Z,17.7
2022-10-13T10:21:09.590Z,18.4
2022-10-13T10:24:09.599Z,18.8
2022-10-13T10:27:09.898Z,19
2022-10-13T10:30:09.677Z,19.4
2022-10-13T10:33:09.642Z,20.1
2022-10-13T10:36:09.707Z,20.3
2022-10-13T10:39:09.594Z,20.2
2022-10-13T10:42:09.501Z,19.6
2022-10-13T10:45:09.612Z,19.4
2022-10-13T10:48:09.607Z,19.9
2022-10-13T10:51:09.557Z,20.1
2022-10-13T10:54:09.559Z,20.2
2022-10-13T10:57:09.564Z,20.5
2022-10-13T11:00:09.750Z,20.4
2022-10-13T11:03:09.539Z,20.7
2022-10-13T11:06:09.627Z,20.3
2022-10-13T11:09:09.509Z,19.9
2022-10-13T11:12:09.596Z,20.3
2022-10-13T11:15:09.610Z,20.3
2022-10-13T11:18:09.459Z,20.1
2022-10-13T11:21:09.465Z,19.9
2022-10-13T11:24:11.215Z,20.1
2022-10-13T11:27:09.547Z,20.3
2022-10-13T11:30:09.581Z,20.1
2022-10-13T11:33:09.621Z,20.3
2022-10-13T11:36:09.582Z,19.8
2022-10-13T11:39:09.494Z,19.8
2022-10-13T11:42:09.554Z,20.1
2022-10-13T11:45:09.525Z,20.3
2022-10-13T11:51:10.318Z,21.2
2022-10-13T11:54:09.625Z,21.4
2022-10-13T11:57:09.470Z,21.2
2022-10-13T12:00:09.662Z,20.9
2022-10-13T12:03:10.116Z,20.3
2022-10-13T12:06:09.508Z,20.1
2022-10-13T12:09:09.786Z,20.1
2022-10-13T12:12:09.543Z,19.9
2022-10-13T12:15:15.899Z,19.9
2022-10-13T12:18:09.562Z,20.4
2022-10-13T12:21:09.526Z,20.7
2022-10-13T12:24:09.589Z,21
2022-10-13T12:27:09.537Z,20.8
2022-10-13T12:30:09.846Z,20.7
2022-10-13T12:33:09.538Z,20.6
2022-10-13T12:36:09.532Z,20.5
2022-10-13T12:39:09.653Z,20.6
2022-10-13T12:42:09.618Z,20.8
2022-10-13T12:45:09.644Z,20.5
2022-10-13T12:48:09.567Z,19.9
2022-10-13T12:51:09.538Z,19.6
2022-10-13T12:54:09.548Z,19.3
2022-10-13T12:57:09.586Z,19.2
2022-10-13T13:00:09.676Z,19
2022-10-13T13:03:09.523Z,19.1
2022-10-13T13:06:09.972Z,19.5
2022-10-13T13:09:09.565Z,19.9
2022-10-13T13:12:09.518Z,20.1
2022-10-13T13:15:09.592Z,19.9
2022-10-13T13:18:09.665Z,19.9
2022-10-13T13:21:09.646Z,20
2022-10-13T13:24:43.575Z,19.9
2022-10-13T13:27:09.569Z,19.8
2022-10-13T13:30:09.730Z,19.4
2022-10-13T13:33:12.533Z,18.9
2022-10-13T13:36:09.557Z,18.7
2022-10-13T13:39:09.506Z,18.6
2022-10-13T13:42:09.548Z,18.4
2022-10-13T13:45:09.670Z,18.3
2022-10-13T13:48:10.055Z,18.3
2022-10-13T13:51:09.545Z,18.4
2022-10-13T13:54:09.585Z,18.4
2022-10-13T13:57:09.573Z,18.4
2022-10-13T14:00:09.824Z,18.4
2022-10-13T14:03:09.567Z,18.3
2022-10-13T14:06:09.609Z,18.1
2022-10-13T14:09:09.582Z,17.9
2022-10-13T14:12:09.560Z,17.9
2022-10-13T14:15:09.581Z,18.1
2022-10-13T14:18:09.701Z,18.2
2022-10-13T14:21:09.544Z,18.2
2022-10-13T14:24:09.607Z,18.1
2022-10-13T14:27:09.514Z,18.1
2022-10-13T14:30:09.661Z,18.1
2022-10-13T14:33:09.546Z,18
2022-10-13T14:36:09.637Z,17.8
2022-10-13T14:39:09.530Z,17.7
2022-10-13T14:42:09.578Z,17.5
2022-10-13T14:45:09.560Z,17.2
2022-10-13T14:48:09.558Z,17.1
2022-10-13T14:51:09.594Z,16.9
2022-10-13T14:54:09.587Z,16.8
2022-10-13T14:57:09.539Z,16.6
2022-10-13T15:00:11.325Z,16.4
2022-10-13T15:03:09.550Z,16.3
2022-10-13T15:06:09.514Z,16.3
2022-10-13T15:12:09.517Z,16.1
2022-10-13T15:15:09.587Z,16.1
2022-10-13T15:18:09.534Z,16
2022-10-13T15:21:09.506Z,15.9
2022-10-13T15:24:09.554Z,15.9
2022-10-13T15:27:09.504Z,15.9
2022-10-13T15:30:09.663Z,15.9
2022-10-13T15:33:09.546Z,15.9
2022-10-13T15:36:09.587Z,15.8
2022-10-13T15:39:09.547Z,15.8
2022-10-13T15:42:09.534Z,15.8
2022-10-13T15:45:20.708Z,15.7
2022-10-13T15:48:09.532Z,15.6
2022-10-13T15:51:09.557Z,15.6
2022-10-13T15:54:09.543Z,15.4
2022-10-13T15:57:09.646Z,15.4
2022-10-13T16:00:09.621Z,15.3
2022-10-13T16:03:09.624Z,15.3
2022-10-13T16:06:09.555Z,15.2
2022-10-13T16:09:09.574Z,15.1
2022-10-13T16:12:09.568Z,15.1
2022-10-13T16:15:09.546Z,14.9
2022-10-13T16:18:09.551Z,14.9
2022-10-13T16:21:11.463Z,14.7
2022-10-13T16:24:09.568Z,14.6
2022-10-13T16:27:09.546Z,14.6
2022-10-13T16:30:09.649Z,14.4
2022-10-13T16:33:09.564Z,14.3
2022-10-13T16:36:09.506Z,14.1
2022-10-13T16:39:09.488Z,14
2022-10-13T16:42:09.507Z,14
2022-10-13T16:45:09.613Z,13.9
2022-10-13T16:48:09.579Z,13.8
2022-10-13T16:51:09.544Z,13.5
2022-10-13T16:54:13.474Z,13.3
2022-10-13T16:57:09.515Z,13.2
2022-10-13T17:00:09.587Z,13
2022-10-13T17:03:09.580Z,12.9
2022-10-13T17:06:09.702Z,12.9
2022-10-13T17:09:09.509Z,12.8
2022-10-13T17:12:09.569Z,12.8
2022-10-13T17:15:09.576Z,12.7
2022-10-13T17:18:09.577Z,12.7
2022-10-13T17:21:09.573Z,12.6
2022-10-13T17:24:09.518Z,12.6
2022-10-13T17:27:09.477Z,12.5
2022-10-13T17:30:09.607Z,12.6
2022-10-13T17:33:13.519Z,12.5
2022-10-13T17:36:09.585Z,12.5
2022-10-13T17:39:09.556Z,12.4
2022-10-13T17:42:09.469Z,12.2
2022-10-13T17:45:09.582Z,12.1
2022-10-13T17:48:09.485Z,12.1
2022-10-13T17:51:09.456Z,11.9
2022-10-13T17:54:16.260Z,11.8
2022-10-13T17:57:09.517Z,11.6
2022-10-13T18:00:09.579Z,11.6
2022-10-13T18:03:09.567Z,11.5
2022-10-13T18:06:09.544Z,11.4
2022-10-13T18:09:09.617Z,11.5
2022-10-13T18:12:09.639Z,11.5
2022-10-13T18:15:09.565Z,11.6
2022-10-13T18:18:09.499Z,11.6
2022-10-13T18:21:09.563Z,11.8
2022-10-13T18:24:09.586Z,11.9
2022-10-13T18:27:09.542Z,12.2
2022-10-13T18:30:10.029Z,12.3
2022-10-13T18:33:09.539Z,12.4
2022-10-13T18:36:09.511Z,12.3
2022-10-13T18:39:09.597Z,12.2
2022-10-13T18:42:09.519Z,12.1
2022-10-13T18:45:09.476Z,11.9
2022-10-13T18:48:09.547Z,11.8
2022-10-13T18:51:09.512Z,11.7
2022-10-13T18:54:09.762Z,11.5
2022-10-13T18:57:09.495Z,11.4
2022-10-13T19:00:09.602Z,11.3
2022-10-13T19:03:09.480Z,11.1
2022-10-13T19:06:09.602Z,11.1
2022-10-13T19:09:09.713Z,10.9
2022-10-13T19:12:09.578Z,10.9
2022-10-13T19:15:09.587Z,10.9
2022-10-13T19:18:09.612Z,10.8
2022-10-13T19:21:09.561Z,10.7
2022-10-13T19:24:09.616Z,10.6
2022-10-13T19:27:09.496Z,10.4
2022-10-13T19:30:09.645Z,10.4
2022-10-13T19:33:09.522Z,10.4
2022-10-13T19:36:09.571Z,10.3
2022-10-13T19:39:11.638Z,10.2
2022-10-13T19:42:09.522Z,10.1
2022-10-13T19:45:09.523Z,10.1
2022-10-13T19:48:09.562Z,10.1
2022-10-13T19:51:09.480Z,10.1
2022-10-13T19:54:09.533Z,10.1
2022-10-13T19:57:09.607Z,10.1
2022-10-13T20:00:09.649Z,10.1
2022-10-13T20:03:09.533Z,10.1
2022-10-13T20:06:09.549Z,10.1
2022-10-13T20:09:09.561Z,10.1
2022-10-13T20:12:09.567Z,10
2022-10-13T20:15:09.551Z,9.9
2022-10-13T20:18:09.601Z,9.9
2022-10-13T20:21:09.622Z,9.9
2022-10-13T20:24:09.548Z,10
2022-10-13T20:27:09.488Z,10
2022-10-13T20:30:09.541Z,10.1
2022-10-13T20:33:09.530Z,10.1
2022-10-13T20:36:09.552Z,10.2
2022-10-13T20:39:09.530Z,10.3
2022-10-13T20:42:09.572Z,10.3
2022-10-13T20:45:09.621Z,10.2
2022-10-13T20:48:09.622Z,10.3
2022-10-13T20:51:09.577Z,10.4
2022-10-13T20:54:10.264Z,10.6
2022-10-13T20:57:09.496Z,10.7
2022-10-13T21:00:09.653Z,10.8
2022-10-13T21:03:11.276Z,10.9
2022-10-13T21:06:09.525Z,10.9
2022-10-13T21:09:09.551Z,10.8
2022-10-13T21:12:09.554Z,10.7
2022-10-13T21:15:09.581Z,10.6
2022-10-13T21:18:09.517Z,10.4
2022-10-13T21:21:09.597Z,10.4
2022-10-13T21:24:09.477Z,10.4
2022-10-13T21:27:09.604Z,10.3
2022-10-13T21:30:09.585Z,10.2
2022-10-13T21:33:09.571Z,10.2
2022-10-13T21:36:09.563Z,10.2
2022-10-13T21:39:09.538Z,10.1
2022-10-13T21:42:09.513Z,10.1
2022-10-13T21:45:09.588Z,10.1
2022-10-13T21:48:09.546Z,10.1
2022-10-13T21:51:09.572Z,10.1
2022-10-13T21:54:09.493Z,10.1
2022-10-13T21:57:09.572Z,10.1
2022-10-13T22:00:09.847Z,10.1
2022-10-13T22:03:09.525Z,10.1
2022-10-13T22:06:11.410Z,10.1
2022-10-13T22:09:09.590Z,10.2
2022-10-13T22:12:09.627Z,10.2
2022-10-13T22:15:09.722Z,10.1
2022-10-13T22:18:09.543Z,10.1
2022-10-13T22:21:09.546Z,10.1
2022-10-13T22:24:09.515Z,10.1
2022-10-13T22:27:09.482Z,10
2022-10-13T22:30:09.514Z,10
2022-10-13T22:33:09.553Z,10
2022-10-13T22:36:09.583Z,10
2022-10-13T22:39:09.507Z,10
2022-10-13T22:42:09.577Z,10
2022-10-13T22:45:09.525Z,9.9
2022-10-13T22:48:09.601Z,9.9
2022-10-13T22:51:09.543Z,9.9
2022-10-13T22:54:09.615Z,9.9
2022-10-13T22:57:09.492Z,9.9
2022-10-13T23:00:09.661Z,9.9
2022-10-13T23:03:10.030Z,9.9
2022-10-13T23:06:09.592Z,9.9
2022-10-13T23:09:09.666Z,9.9
2022-10-13T23:12:09.481Z,9.9
2022-10-13T23:15:09.583Z,9.9
2022-10-13T23:18:09.573Z,9.9
2022-10-13T23:21:09.531Z,9.9
2022-10-13T23:24:09.633Z,9.8
2022-10-13T23:27:09.519Z,9.8
2022-10-13T23:30:09.513Z,9.9
2022-10-13T23:33:09.657Z,9.9
2022-10-13T23:36:09.492Z,9.9
2022-10-13T23:39:09.590Z,9.9
2022-10-13T23:42:09.521Z,10
2022-10-13T23:45:09.537Z,10.1
2022-10-13T23:48:09.638Z,10.1
2022-10-13T23:51:09.525Z,10.1
2022-10-13T23:54:09.535Z,10.1
2022-10-13T23:57:09.560Z,10.1
